HAPPY1 EFKU-EFJY

Flight info

Callsign HAPPY1
Flight time 0h 25m
Altitude 20000
Route NISPO RERGA
Aircraft PC12/L-SDFGRY/H

Departure

Time 2026-05-07 12:45
Airport Kuopio Airport (EFKU)

Arrival

Time 2026-05-07 13:11
Airport Jyväskylä Airport (EFJY)
Time Latitude Longitude Altitude Speed Heading
2026-05-07 12:38 63.00362 27.79102 316 ft 0 kts 68°
2026-05-07 12:43 63.00367 27.79120 315 ft 7 kts 45°
2026-05-07 12:44 63.00460 27.79067 316 ft 20 kts 356°
2026-05-07 12:44 63.00590 27.79255 316 ft 29 kts 36°
2026-05-07 12:44 63.00686 27.79614 317 ft 23 kts 70°
2026-05-07 12:44 63.00675 27.79810 316 ft 0 kts 160°
2026-05-07 12:45 63.00550 27.79927 310 ft 53 kts 157°
2026-05-07 12:45 63.00005 27.80429 357 ft 107 kts 156°
2026-05-07 12:45 62.99243 27.81088 705 ft 130 kts 155°
2026-05-07 12:45 62.98374 27.81873 1333 ft 139 kts 159°
2026-05-07 12:46 62.97432 27.82769 2015 ft 158 kts 159°
2026-05-07 12:46 62.96339 27.83795 2527 ft 180 kts 159°
2026-05-07 12:46 62.95183 27.84868 3321 ft 180 kts 159°
2026-05-07 12:46 62.94020 27.85945 4098 ft 182 kts 160°
2026-05-07 12:47 62.92767 27.86554 4684 ft 193 kts 180°
2026-05-07 12:47 62.91403 27.85985 5043 ft 204 kts 203°
2026-05-07 12:47 62.90236 27.84273 5617 ft 203 kts 225°
2026-05-07 12:47 62.89440 27.81729 6159 ft 204 kts 240°
2026-05-07 12:48 62.88734 27.78931 6454 ft 216 kts 240°
2026-05-07 12:48 62.87997 27.76041 6812 ft 218 kts 240°
2026-05-07 12:48 62.87254 27.73141 7199 ft 218 kts 240°
2026-05-07 12:48 62.86520 27.70279 7566 ft 219 kts 240°
2026-05-07 12:49 62.85769 27.67345 7936 ft 222 kts 240°
2026-05-07 12:49 62.85071 27.64613 8318 ft 221 kts 240°
2026-05-07 12:49 62.84316 27.61659 8701 ft 223 kts 240°
2026-05-07 12:49 62.83551 27.58693 9109 ft 225 kts 240°
2026-05-07 12:50 62.82778 27.55706 9514 ft 226 kts 240°
2026-05-07 12:50 62.82005 27.52718 9932 ft 227 kts 240°
2026-05-07 12:50 62.81228 27.49708 10310 ft 227 kts 240°
2026-05-07 12:50 62.80448 27.46692 10705 ft 227 kts 240°
2026-05-07 12:51 62.79668 27.43681 11100 ft 227 kts 240°
2026-05-07 12:51 62.78888 27.40677 11499 ft 227 kts 240°
2026-05-07 12:51 62.78107 27.37668 11905 ft 228 kts 240°
2026-05-07 12:51 62.77324 27.34658 12303 ft 228 kts 240°
2026-05-07 12:52 62.76550 27.31686 12720 ft 228 kts 241°
2026-05-07 12:52 62.75764 27.28670 13134 ft 229 kts 241°
2026-05-07 12:52 62.74977 27.25657 13562 ft 229 kts 241°
2026-05-07 12:52 62.74185 27.22630 13971 ft 229 kts 241°
2026-05-07 12:53 62.73396 27.19616 14315 ft 228 kts 241°
2026-05-07 12:53 62.72606 27.16604 14598 ft 228 kts 241°
2026-05-07 12:53 62.71816 27.13595 14885 ft 228 kts 240°
2026-05-07 12:53 62.70886 27.10801 15137 ft 229 kts 231°
2026-05-07 12:54 62.69845 27.08184 15411 ft 228 kts 232°
2026-05-07 12:54 62.68819 27.05543 15683 ft 228 kts 232°
2026-05-07 12:54 62.67783 27.02883 15718 ft 233 kts 232°
2026-05-07 12:54 62.66733 27.00206 15720 ft 237 kts 232°
2026-05-07 12:55 62.65660 26.97476 15726 ft 238 kts 232°
2026-05-07 12:55 62.64576 26.94721 15568 ft 243 kts 232°
2026-05-07 12:55 62.63464 26.91894 15270 ft 248 kts 231°
2026-05-07 12:55 62.62349 26.89068 14945 ft 241 kts 231°
2026-05-07 12:56 62.61271 26.86339 14630 ft 236 kts 231°
2026-05-07 12:56 62.60204 26.83638 14320 ft 235 kts 231°
2026-05-07 12:56 62.58927 26.81430 14004 ft 238 kts 213°
2026-05-07 12:56 62.57475 26.79690 13693 ft 238 kts 214°
2026-05-07 12:57 62.56112 26.77744 13360 ft 237 kts 219°
2026-05-07 12:57 62.54877 26.75393 13032 ft 235 kts 229°
2026-05-07 12:57 62.53869 26.72612 12725 ft 235 kts 237°
2026-05-07 12:57 62.52973 26.69647 12422 ft 235 kts 237°
2026-05-07 12:58 62.52048 26.66717 12123 ft 236 kts 236°
2026-05-07 12:58 62.51092 26.63827 11831 ft 236 kts 235°
2026-05-07 12:58 62.50133 26.60919 11530 ft 237 kts 235°
2026-05-07 12:58 62.49179 26.58006 11232 ft 237 kts 235°
2026-05-07 12:59 62.48229 26.55105 10939 ft 236 kts 235°
2026-05-07 12:59 62.47278 26.52211 10662 ft 236 kts 235°
2026-05-07 12:59 62.46327 26.49317 10393 ft 236 kts 235°
2026-05-07 12:59 62.45386 26.46466 10117 ft 236 kts 235°
2026-05-07 13:00 62.44433 26.43582 9839 ft 236 kts 235°
2026-05-07 13:00 62.43484 26.40704 9540 ft 235 kts 235°
2026-05-07 13:00 62.42535 26.37832 9246 ft 234 kts 235°
2026-05-07 13:00 62.41592 26.34984 8979 ft 232 kts 235°
2026-05-07 13:01 62.40653 26.32151 8686 ft 232 kts 235°
2026-05-07 13:01 62.39716 26.29332 8398 ft 230 kts 235°
2026-05-07 13:01 62.38782 26.26522 8109 ft 230 kts 235°
2026-05-07 13:01 62.37858 26.23744 7831 ft 231 kts 235°
2026-05-07 13:02 62.36930 26.20959 7477 ft 219 kts 235°
2026-05-07 13:02 62.36041 26.18293 6638 ft 217 kts 235°
2026-05-07 13:02 62.35194 26.15755 6282 ft 196 kts 236°
2026-05-07 13:02 62.34430 26.13475 6038 ft 192 kts 235°
2026-05-07 13:03 62.33623 26.11053 5744 ft 205 kts 236°
2026-05-07 13:03 62.32786 26.08520 5437 ft 207 kts 236°
2026-05-07 13:03 62.31929 26.06218 5157 ft 192 kts 224°
2026-05-07 13:03 62.30899 26.04457 4889 ft 188 kts 220°
2026-05-07 13:04 62.29918 26.02667 4601 ft 184 kts 224°
2026-05-07 13:04 62.29005 26.00755 4294 ft 181 kts 228°
2026-05-07 13:04 62.28183 25.98770 4015 ft 178 kts 231°
2026-05-07 13:04 62.27428 25.96662 3801 ft 177 kts 239°
2026-05-07 13:05 62.27292 25.94121 3619 ft 170 kts 289°
2026-05-07 13:05 62.28112 25.92554 3468 ft 160 kts 342°
2026-05-07 13:05 62.29102 25.91666 3326 ft 158 kts 321°
2026-05-07 13:05 62.29871 25.90127 3097 ft 146 kts 311°
2026-05-07 13:06 62.30568 25.88636 2925 ft 139 kts 311°
2026-05-07 13:06 62.31229 25.87238 2754 ft 126 kts 311°
2026-05-07 13:06 62.31794 25.85987 2575 ft 109 kts 309°
2026-05-07 13:06 62.32353 25.84746 2427 ft 123 kts 309°
2026-05-07 13:07 62.32939 25.83454 2252 ft 117 kts 309°
2026-05-07 13:07 62.33496 25.82193 2093 ft 114 kts 310°
2026-05-07 13:07 62.34012 25.81051 1928 ft 99 kts 310°
2026-05-07 13:07 62.34470 25.80027 1821 ft 95 kts 309°
2026-05-07 13:08 62.34942 25.78974 1685 ft 94 kts 309°
2026-05-07 13:08 62.35377 25.78026 1531 ft 83 kts 306°
2026-05-07 13:08 62.35772 25.77101 1419 ft 87 kts 307°
2026-05-07 13:08 62.36214 25.76121 1309 ft 95 kts 310°
2026-05-07 13:09 62.36669 25.75133 1169 ft 88 kts 310°
2026-05-07 13:09 62.37084 25.74209 1051 ft 84 kts 308°
2026-05-07 13:09 62.37483 25.73299 947 ft 86 kts 308°
2026-05-07 13:09 62.37923 25.72376 811 ft 90 kts 310°
2026-05-07 13:10 62.38367 25.71396 696 ft 90 kts 310°
2026-05-07 13:10 62.38796 25.70400 614 ft 96 kts 310°
2026-05-07 13:10 62.39250 25.69392 457 ft 85 kts 309°
2026-05-07 13:10 62.39591 25.68614 451 ft 61 kts 313°
2026-05-07 13:11 62.39872 25.67988 461 ft 60 kts 314°
2026-05-07 13:11 62.40177 25.67308 468 ft 66 kts 314°
2026-05-07 13:11 62.40449 25.66702 473 ft 35 kts 312°
2026-05-07 13:11 62.40486 25.66349 476 ft 15 kts 223°
2026-05-07 13:12 62.40367 25.66099 479 ft 32 kts 224°
2026-05-07 13:12 62.40245 25.65848 477 ft 21 kts 224°
2026-05-07 13:12 62.40167 25.65779 479 ft 14 kts 140°
2026-05-07 13:12 62.40102 25.65784 478 ft 6 kts 281°
2026-05-07 13:13 62.40151 25.65681 475 ft 3 kts
2026-05-07 13:13 62.40171 25.65735 479 ft 0 kts 52°